Amsterdam, Netherlands

5:14 PM CET on January 29, 2015 (GMT +0100)
Schiphol | Change Station
CLOSE
Current Station
Personal Weather Station
Location: Badhoevedorp, NOORD HOLLAND
Elevation: -10 ft
Nearby Weather Stations
Active Advisory: Snow/Ice nederlands:

Elev -10 ft 52.33 °N, 4.78 °E | Updated 14 minutes ago

Light Small Hail Showers
Light Showers Small Hail Rain
36.7 °F
Feels Like 34 °F
N
4.0
Wind Variable Wind from SSW
Gusts 8.0 mph

Today
High -- | Low -- °F
--% Chance of Precip.
Yesterday
High -- | Low -- °F
Precip. -- in
8:27 AM 5:21 PM
Waxing Gibbous, 75% visible
Pressure 28.82 in
Visibility 6.2 miles
Clouds Few 1000 ft
Scattered Clouds 2500 ft
Windchill 34 °F
Dew Point 33 °F
Humidity 87%
Rainfall 0.05 in
Snow Depth Not available.
UV 0.0 out of 12
Pollen Not available.
Air Quality Not available.
Flu Activity Not available.
METAR EHAM 291555Z 22010KT 9999 -SHGSRA FEW010 SCT025CB 02/00 Q0976 TEMPO 5000 SHRAGS

More Conditions Fewer Conditions

Pressure 28.82 in
Visibility 6.2 miles
Clouds Few 1000 ft
Scattered Clouds 2500 ft
Windchill 34 °F
Dew Point 33 °F
Humidity 87%
Rainfall 0.05 in
Snow Depth Not available.
UV 0.0 out of 12
Pollen Not available.
Air Quality Not available.
Flu Activity Not available.
METAR EHAM 291555Z 22010KT 9999 -SHGSRA FEW010 SCT025CB 02/00 Q0976 TEMPO 5000 SHRAGS

More Conditions Fewer Conditions

10-Day Weather Forecast

Almanac

Astronomy

Jan. 29, 2015 Rise Set
Actual Time
Civil Twilight
Nautical Twilight
Astronomical Twilight
Moon
Length of Visible Light
Length of Day
Tomorrow will be .
, % of the Moon is Illuminated

Today's Extremes

Country Highs Country Lows

Community

WunderPhotos

Upload Photos

1,791,464 photos uploaded!

WunderBlogs® & News

Nearby

Air Quality

  Air Quality AQ Index Pollutant
Not available.

Snow Depth

Station Depth Elevation

Earthquake Activity

City Distance Mag. Time & Date
Minimum magnitude displayed is 2.5.

Coastal Water Temperatures

Place Temperature

Nearby Weather Stations